sensor_id;sensor_type;location;lat;lon;timestamp;P1;durP1;ratioP1;P2;durP2;ratioP2
8213;SDS011;4148;47.974;7.824;2022-12-07T00:01:05;21.63;;;13.10;;
8213;SDS011;4148;47.974;7.824;2022-12-07T00:03:33;20.50;;;12.80;;
8213;SDS011;4148;47.974;7.824;2022-12-07T00:06:02;20.10;;;13.63;;
8213;SDS011;4148;47.974;7.824;2022-12-07T00:08:31;24.70;;;12.90;;
8213;SDS011;4148;47.974;7.824;2022-12-07T00:11:00;22.50;;;13.90;;
8213;SDS011;4148;47.974;7.824;2022-12-07T00:13:30;22.53;;;14.00;;
8213;SDS011;4148;47.974;7.824;2022-12-07T00:16:00;20.43;;;12.63;;
8213;SDS011;4148;47.974;7.824;2022-12-07T00:18:29;25.40;;;13.60;;
8213;SDS011;4148;47.974;7.824;2022-12-07T00:21:00;21.30;;;13.80;;
8213;SDS011;4148;47.974;7.824;2022-12-07T00:23:28;21.20;;;12.27;;
8213;SDS011;4148;47.974;7.824;2022-12-07T00:26:02;22.73;;;15.17;;
8213;SDS011;4148;47.974;7.824;2022-12-07T00:28:32;19.80;;;11.97;;
8213;SDS011;4148;47.974;7.824;2022-12-07T00:31:04;20.87;;;12.90;;
8213;SDS011;4148;47.974;7.824;2022-12-07T00:33:33;20.87;;;12.97;;
8213;SDS011;4148;47.974;7.824;2022-12-07T00:36:03;20.63;;;13.70;;
8213;SDS011;4148;47.974;7.824;2022-12-07T00:38:33;21.00;;;14.20;;
8213;SDS011;4148;47.974;7.824;2022-12-07T00:41:03;24.10;;;14.17;;
8213;SDS011;4148;47.974;7.824;2022-12-07T00:43:33;25.70;;;15.10;;
8213;SDS011;4148;47.974;7.824;2022-12-07T00:46:01;22.90;;;13.90;;
8213;SDS011;4148;47.974;7.824;2022-12-07T00:48:30;21.00;;;13.23;;
8213;SDS011;4148;47.974;7.824;2022-12-07T00:50:58;22.93;;;13.77;;
8213;SDS011;4148;47.974;7.824;2022-12-07T00:53:26;23.17;;;12.80;;
8213;SDS011;4148;47.974;7.824;2022-12-07T00:55:55;18.37;;;12.10;;
8213;SDS011;4148;47.974;7.824;2022-12-07T00:58:23;22.30;;;13.47;;
8213;SDS011;4148;47.974;7.824;2022-12-07T01:00:52;19.37;;;12.00;;
8213;SDS011;4148;47.974;7.824;2022-12-07T01:03:20;21.80;;;12.77;;
8213;SDS011;4148;47.974;7.824;2022-12-07T01:05:49;19.40;;;12.20;;
8213;SDS011;4148;47.974;7.824;2022-12-07T01:08:18;24.00;;;13.07;;
8213;SDS011;4148;47.974;7.824;2022-12-07T01:10:46;21.83;;;13.37;;
8213;SDS011;4148;47.974;7.824;2022-12-07T01:13:14;18.03;;;12.30;;
8213;SDS011;4148;47.974;7.824;2022-12-07T01:15:42;23.70;;;12.73;;
8213;SDS011;4148;47.974;7.824;2022-12-07T01:18:12;22.90;;;12.57;;
8213;SDS011;4148;47.974;7.824;2022-12-07T01:20:40;23.30;;;13.40;;
8213;SDS011;4148;47.974;7.824;2022-12-07T01:23:08;18.43;;;11.97;;
8213;SDS011;4148;47.974;7.824;2022-12-07T01:25:36;19.60;;;13.10;;
8213;SDS011;4148;47.974;7.824;2022-12-07T01:28:04;23.00;;;13.10;;
8213;SDS011;4148;47.974;7.824;2022-12-07T01:30:32;20.00;;;13.10;;
8213;SDS011;4148;47.974;7.824;2022-12-07T01:33:00;20.90;;;12.97;;
8213;SDS011;4148;47.974;7.824;2022-12-07T01:35:29;22.03;;;13.17;;
8213;SDS011;4148;47.974;7.824;2022-12-07T01:38:00;23.47;;;12.80;;
8213;SDS011;4148;47.974;7.824;2022-12-07T01:40:28;19.70;;;13.30;;
8213;SDS011;4148;47.974;7.824;2022-12-07T01:42:56;25.30;;;12.87;;
8213;SDS011;4148;47.974;7.824;2022-12-07T01:48:10;21.70;;;13.13;;
8213;SDS011;4148;47.974;7.824;2022-12-07T01:50:41;21.30;;;13.67;;
8213;SDS011;4148;47.974;7.824;2022-12-07T01:53:10;21.70;;;13.10;;
8213;SDS011;4148;47.974;7.824;2022-12-07T01:55:40;23.13;;;13.20;;
8213;SDS011;4148;47.974;7.824;2022-12-07T01:58:11;26.47;;;15.10;;
8213;SDS011;4148;47.974;7.824;2022-12-07T02:00:40;27.40;;;15.80;;
8213;SDS011;4148;47.974;7.824;2022-12-07T02:03:09;22.97;;;14.27;;
8213;SDS011;4148;47.974;7.824;2022-12-07T02:05:45;26.07;;;15.43;;
8213;SDS011;4148;47.974;7.824;2022-12-07T02:08:15;28.80;;;17.57;;
8213;SDS011;4148;47.974;7.824;2022-12-07T02:10:44;30.57;;;18.33;;
8213;SDS011;4148;47.974;7.824;2022-12-07T02:13:13;30.90;;;17.93;;
8213;SDS011;4148;47.974;7.824;2022-12-07T02:18:35;29.03;;;17.10;;
8213;SDS011;4148;47.974;7.824;2022-12-07T02:21:14;28.50;;;17.13;;
8213;SDS011;4148;47.974;7.824;2022-12-07T02:24:03;29.10;;;17.07;;
8213;SDS011;4148;47.974;7.824;2022-12-07T02:29:40;28.60;;;16.47;;
8213;SDS011;4148;47.974;7.824;2022-12-07T02:32:15;29.40;;;17.10;;
8213;SDS011;4148;47.974;7.824;2022-12-07T02:34:49;30.50;;;17.43;;
8213;SDS011;4148;47.974;7.824;2022-12-07T02:37:21;27.50;;;15.63;;
8213;SDS011;4148;47.974;7.824;2022-12-07T02:39:57;27.13;;;15.40;;
8213;SDS011;4148;47.974;7.824;2022-12-07T02:42:31;25.60;;;14.73;;
8213;SDS011;4148;47.974;7.824;2022-12-07T02:45:04;25.50;;;15.20;;
8213;SDS011;4148;47.974;7.824;2022-12-07T02:47:34;24.00;;;14.60;;
8213;SDS011;4148;47.974;7.824;2022-12-07T02:50:04;22.40;;;14.00;;
8213;SDS011;4148;47.974;7.824;2022-12-07T02:52:33;25.93;;;13.90;;
8213;SDS011;4148;47.974;7.824;2022-12-07T02:55:01;19.77;;;12.47;;
8213;SDS011;4148;47.974;7.824;2022-12-07T02:57:41;22.17;;;13.17;;
8213;SDS011;4148;47.974;7.824;2022-12-07T03:00:22;20.67;;;13.03;;
8213;SDS011;4148;47.974;7.824;2022-12-07T03:02:52;19.63;;;11.00;;
8213;SDS011;4148;47.974;7.824;2022-12-07T03:05:29;19.27;;;10.60;;
8213;SDS011;4148;47.974;7.824;2022-12-07T03:08:06;17.47;;;10.90;;
8213;SDS011;4148;47.974;7.824;2022-12-07T03:10:42;15.50;;;9.70;;
8213;SDS011;4148;47.974;7.824;2022-12-07T03:13:19;16.07;;;10.00;;
8213;SDS011;4148;47.974;7.824;2022-12-07T03:15:53;25.33;;;10.77;;
8213;SDS011;4148;47.974;7.824;2022-12-07T03:18:25;18.83;;;11.43;;
8213;SDS011;4148;47.974;7.824;2022-12-07T03:20:58;20.60;;;10.90;;
8213;SDS011;4148;47.974;7.824;2022-12-07T03:23:29;18.00;;;10.57;;
8213;SDS011;4148;47.974;7.824;2022-12-07T03:26:00;18.60;;;10.67;;
8213;SDS011;4148;47.974;7.824;2022-12-07T03:28:31;18.80;;;11.73;;
8213;SDS011;4148;47.974;7.824;2022-12-07T03:31:03;18.33;;;10.93;;
8213;SDS011;4148;47.974;7.824;2022-12-07T03:33:39;18.70;;;11.63;;
8213;SDS011;4148;47.974;7.824;2022-12-07T03:36:12;20.80;;;11.00;;
8213;SDS011;4148;47.974;7.824;2022-12-07T03:38:45;16.83;;;11.50;;
8213;SDS011;4148;47.974;7.824;2022-12-07T03:41:17;19.07;;;11.50;;
8213;SDS011;4148;47.974;7.824;2022-12-07T03:43:49;20.50;;;11.43;;
8213;SDS011;4148;47.974;7.824;2022-12-07T03:46:20;19.33;;;10.70;;
8213;SDS011;4148;47.974;7.824;2022-12-07T03:48:56;14.77;;;8.67;;
8213;SDS011;4148;47.974;7.824;2022-12-07T03:51:31;16.30;;;9.90;;
8213;SDS011;4148;47.974;7.824;2022-12-07T03:54:05;16.80;;;9.30;;
8213;SDS011;4148;47.974;7.824;2022-12-07T03:56:38;18.53;;;11.17;;
8213;SDS011;4148;47.974;7.824;2022-12-07T03:59:08;19.57;;;10.57;;
8213;SDS011;4148;47.974;7.824;2022-12-07T04:01:38;15.37;;;10.20;;
8213;SDS011;4148;47.974;7.824;2022-12-07T04:04:08;17.20;;;10.50;;
8213;SDS011;4148;47.974;7.824;2022-12-07T04:06:36;16.43;;;9.83;;
8213;SDS011;4148;47.974;7.824;2022-12-07T04:09:04;16.50;;;10.73;;
8213;SDS011;4148;47.974;7.824;2022-12-07T04:11:32;15.67;;;9.67;;
8213;SDS011;4148;47.974;7.824;2022-12-07T04:13:59;15.67;;;10.17;;
8213;SDS011;4148;47.974;7.824;2022-12-07T04:16:47;15.20;;;10.27;;
8213;SDS011;4148;47.974;7.824;2022-12-07T04:19:17;17.47;;;10.13;;
8213;SDS011;4148;47.974;7.824;2022-12-07T04:21:47;15.50;;;9.53;;
8213;SDS011;4148;47.974;7.824;2022-12-07T04:24:15;15.40;;;10.20;;
8213;SDS011;4148;47.974;7.824;2022-12-07T04:26:45;16.90;;;10.23;;
8213;SDS011;4148;47.974;7.824;2022-12-07T04:29:13;14.40;;;9.33;;
8213;SDS011;4148;47.974;7.824;2022-12-07T04:31:43;17.17;;;10.50;;
8213;SDS011;4148;47.974;7.824;2022-12-07T04:34:13;14.90;;;9.03;;
8213;SDS011;4148;47.974;7.824;2022-12-07T04:36:41;17.50;;;9.83;;
8213;SDS011;4148;47.974;7.824;2022-12-07T04:39:14;16.20;;;9.73;;
8213;SDS011;4148;47.974;7.824;2022-12-07T04:41:46;13.60;;;8.90;;
8213;SDS011;4148;47.974;7.824;2022-12-07T04:44:14;13.73;;;8.63;;
8213;SDS011;4148;47.974;7.824;2022-12-07T04:46:43;12.87;;;7.90;;
8213;SDS011;4148;47.974;7.824;2022-12-07T04:49:13;16.10;;;8.07;;
8213;SDS011;4148;47.974;7.824;2022-12-07T04:51:42;12.93;;;7.83;;
8213;SDS011;4148;47.974;7.824;2022-12-07T04:54:10;11.30;;;6.53;;
8213;SDS011;4148;47.974;7.824;2022-12-07T04:56:39;9.10;;;5.63;;
8213;SDS011;4148;47.974;7.824;2022-12-07T04:59:07;9.70;;;5.83;;
8213;SDS011;4148;47.974;7.824;2022-12-07T05:01:36;9.50;;;6.40;;
8213;SDS011;4148;47.974;7.824;2022-12-07T05:04:04;7.43;;;5.23;;
8213;SDS011;4148;47.974;7.824;2022-12-07T05:06:34;9.00;;;5.77;;
8213;SDS011;4148;47.974;7.824;2022-12-07T05:09:02;7.00;;;4.73;;
8213;SDS011;4148;47.974;7.824;2022-12-07T05:11:30;9.40;;;5.70;;
8213;SDS011;4148;47.974;7.824;2022-12-07T05:14:09;8.63;;;5.37;;
8213;SDS011;4148;47.974;7.824;2022-12-07T05:16:39;7.27;;;5.20;;
8213;SDS011;4148;47.974;7.824;2022-12-07T05:19:08;10.37;;;6.20;;
8213;SDS011;4148;47.974;7.824;2022-12-07T05:21:37;9.70;;;5.47;;
8213;SDS011;4148;47.974;7.824;2022-12-07T05:24:06;10.60;;;5.50;;
8213;SDS011;4148;47.974;7.824;2022-12-07T05:26:35;8.10;;;5.20;;
8213;SDS011;4148;47.974;7.824;2022-12-07T05:29:03;10.83;;;5.97;;
8213;SDS011;4148;47.974;7.824;2022-12-07T05:31:31;11.77;;;6.10;;
8213;SDS011;4148;47.974;7.824;2022-12-07T05:34:00;10.33;;;6.00;;
8213;SDS011;4148;47.974;7.824;2022-12-07T05:36:28;13.40;;;6.87;;
8213;SDS011;4148;47.974;7.824;2022-12-07T05:38:59;10.37;;;5.93;;
8213;SDS011;4148;47.974;7.824;2022-12-07T05:41:27;10.83;;;6.30;;
8213;SDS011;4148;47.974;7.824;2022-12-07T05:44:12;8.07;;;4.60;;
8213;SDS011;4148;47.974;7.824;2022-12-07T05:46:41;8.00;;;4.60;;
8213;SDS011;4148;47.974;7.824;2022-12-07T05:49:09;7.40;;;5.50;;
8213;SDS011;4148;47.974;7.824;2022-12-07T05:51:36;8.50;;;5.50;;
8213;SDS011;4148;47.974;7.824;2022-12-07T05:54:06;7.57;;;4.73;;
8213;SDS011;4148;47.974;7.824;2022-12-07T05:56:34;6.47;;;4.00;;
8213;SDS011;4148;47.974;7.824;2022-12-07T05:59:02;6.13;;;3.67;;
8213;SDS011;4148;47.974;7.824;2022-12-07T06:01:47;7.10;;;4.33;;
8213;SDS011;4148;47.974;7.824;2022-12-07T06:04:15;7.07;;;4.30;;
8213;SDS011;4148;47.974;7.824;2022-12-07T06:06:43;7.83;;;4.27;;
8213;SDS011;4148;47.974;7.824;2022-12-07T06:09:13;5.53;;;3.37;;
8213;SDS011;4148;47.974;7.824;2022-12-07T06:11:41;4.87;;;3.10;;
8213;SDS011;4148;47.974;7.824;2022-12-07T06:14:26;5.40;;;3.33;;
8213;SDS011;4148;47.974;7.824;2022-12-07T06:16:54;5.47;;;3.00;;
8213;SDS011;4148;47.974;7.824;2022-12-07T06:19:22;5.10;;;3.33;;
8213;SDS011;4148;47.974;7.824;2022-12-07T06:21:50;5.90;;;3.50;;
8213;SDS011;4148;47.974;7.824;2022-12-07T06:24:20;5.50;;;3.50;;
8213;SDS011;4148;47.974;7.824;2022-12-07T06:26:48;4.17;;;2.90;;
8213;SDS011;4148;47.974;7.824;2022-12-07T06:29:17;4.80;;;2.80;;
8213;SDS011;4148;47.974;7.824;2022-12-07T06:31:45;5.40;;;3.10;;
8213;SDS011;4148;47.974;7.824;2022-12-07T06:34:13;4.17;;;2.70;;
8213;SDS011;4148;47.974;7.824;2022-12-07T06:36:42;7.10;;;3.40;;
8213;SDS011;4148;47.974;7.824;2022-12-07T06:39:10;4.87;;;3.20;;
8213;SDS011;4148;47.974;7.824;2022-12-07T06:41:40;6.30;;;3.50;;
8213;SDS011;4148;47.974;7.824;2022-12-07T06:44:08;9.57;;;5.33;;
8213;SDS011;4148;47.974;7.824;2022-12-07T06:46:36;8.77;;;4.33;;
8213;SDS011;4148;47.974;7.824;2022-12-07T06:49:04;5.87;;;3.93;;
8213;SDS011;4148;47.974;7.824;2022-12-07T06:51:33;6.23;;;4.00;;
8213;SDS011;4148;47.974;7.824;2022-12-07T06:54:02;9.73;;;5.37;;
8213;SDS011;4148;47.974;7.824;2022-12-07T06:56:30;6.53;;;4.10;;
8213;SDS011;4148;47.974;7.824;2022-12-07T06:58:59;5.20;;;3.70;;
8213;SDS011;4148;47.974;7.824;2022-12-07T07:01:28;5.27;;;2.90;;
8213;SDS011;4148;47.974;7.824;2022-12-07T07:03:56;4.00;;;2.70;;
8213;SDS011;4148;47.974;7.824;2022-12-07T07:06:24;7.50;;;3.57;;
8213;SDS011;4148;47.974;7.824;2022-12-07T07:08:52;4.70;;;3.10;;
8213;SDS011;4148;47.974;7.824;2022-12-07T07:11:20;5.20;;;3.60;;
8213;SDS011;4148;47.974;7.824;2022-12-07T07:13:48;8.23;;;4.83;;
8213;SDS011;4148;47.974;7.824;2022-12-07T07:16:17;7.47;;;4.33;;
8213;SDS011;4148;47.974;7.824;2022-12-07T07:18:45;7.13;;;5.17;;
8213;SDS011;4148;47.974;7.824;2022-12-07T07:21:13;7.00;;;4.63;;
8213;SDS011;4148;47.974;7.824;2022-12-07T07:23:41;7.80;;;4.83;;
8213;SDS011;4148;47.974;7.824;2022-12-07T07:26:09;8.40;;;4.87;;
8213;SDS011;4148;47.974;7.824;2022-12-07T07:28:37;6.00;;;4.10;;
8213;SDS011;4148;47.974;7.824;2022-12-07T07:31:05;9.27;;;5.30;;
8213;SDS011;4148;47.974;7.824;2022-12-07T07:33:35;7.20;;;4.60;;
8213;SDS011;4148;47.974;7.824;2022-12-07T07:36:03;11.33;;;5.37;;
8213;SDS011;4148;47.974;7.824;2022-12-07T07:38:31;11.37;;;6.67;;
8213;SDS011;4148;47.974;7.824;2022-12-07T07:40:59;12.20;;;7.97;;
8213;SDS011;4148;47.974;7.824;2022-12-07T07:43:27;11.50;;;8.00;;
8213;SDS011;4148;47.974;7.824;2022-12-07T07:45:55;12.17;;;7.37;;
8213;SDS011;4148;47.974;7.824;2022-12-07T07:48:23;8.50;;;6.00;;
8213;SDS011;4148;47.974;7.824;2022-12-07T07:50:52;10.60;;;6.70;;
8213;SDS011;4148;47.974;7.824;2022-12-07T07:53:20;10.00;;;6.50;;
8213;SDS011;4148;47.974;7.824;2022-12-07T07:55:51;11.20;;;7.50;;
8213;SDS011;4148;47.974;7.824;2022-12-07T07:58:20;12.30;;;7.30;;
8213;SDS011;4148;47.974;7.824;2022-12-07T08:00:48;10.83;;;6.77;;
8213;SDS011;4148;47.974;7.824;2022-12-07T08:03:16;11.07;;;7.00;;
8213;SDS011;4148;47.974;7.824;2022-12-07T08:05:44;10.17;;;6.70;;
8213;SDS011;4148;47.974;7.824;2022-12-07T08:08:13;10.40;;;6.53;;
8213;SDS011;4148;47.974;7.824;2022-12-07T08:10:41;8.53;;;5.70;;
8213;SDS011;4148;47.974;7.824;2022-12-07T08:13:09;9.47;;;5.90;;
8213;SDS011;4148;47.974;7.824;2022-12-07T08:15:41;8.03;;;5.30;;
8213;SDS011;4148;47.974;7.824;2022-12-07T08:18:10;7.73;;;5.07;;
8213;SDS011;4148;47.974;7.824;2022-12-07T08:20:39;7.83;;;4.93;;
8213;SDS011;4148;47.974;7.824;2022-12-07T08:23:08;7.73;;;5.20;;
8213;SDS011;4148;47.974;7.824;2022-12-07T08:25:38;9.10;;;5.23;;
8213;SDS011;4148;47.974;7.824;2022-12-07T08:28:06;11.93;;;6.43;;
8213;SDS011;4148;47.974;7.824;2022-12-07T08:30:34;8.47;;;5.60;;
8213;SDS011;4148;47.974;7.824;2022-12-07T08:33:03;9.43;;;5.90;;
8213;SDS011;4148;47.974;7.824;2022-12-07T08:35:32;7.77;;;5.10;;
8213;SDS011;4148;47.974;7.824;2022-12-07T08:38:00;11.23;;;5.20;;
8213;SDS011;4148;47.974;7.824;2022-12-07T08:40:29;9.80;;;6.10;;
8213;SDS011;4148;47.974;7.824;2022-12-07T08:42:59;8.43;;;5.43;;
8213;SDS011;4148;47.974;7.824;2022-12-07T08:45:26;10.17;;;6.20;;
8213;SDS011;4148;47.974;7.824;2022-12-07T08:47:59;7.43;;;5.60;;
8213;SDS011;4148;47.974;7.824;2022-12-07T08:50:31;10.13;;;6.07;;
8213;SDS011;4148;47.974;7.824;2022-12-07T08:53:00;10.17;;;6.30;;
8213;SDS011;4148;47.974;7.824;2022-12-07T08:55:28;9.00;;;5.50;;
8213;SDS011;4148;47.974;7.824;2022-12-07T08:57:57;9.23;;;5.90;;
8213;SDS011;4148;47.974;7.824;2022-12-07T09:00:26;12.97;;;6.50;;
8213;SDS011;4148;47.974;7.824;2022-12-07T09:02:54;13.60;;;7.20;;
8213;SDS011;4148;47.974;7.824;2022-12-07T09:05:22;10.53;;;6.37;;
8213;SDS011;4148;47.974;7.824;2022-12-07T09:07:51;10.83;;;6.13;;
8213;SDS011;4148;47.974;7.824;2022-12-07T09:10:22;12.87;;;6.83;;
8213;SDS011;4148;47.974;7.824;2022-12-07T09:12:50;11.17;;;6.57;;
8213;SDS011;4148;47.974;7.824;2022-12-07T09:15:19;11.57;;;6.10;;
8213;SDS011;4148;47.974;7.824;2022-12-07T09:17:47;9.63;;;5.53;;
8213;SDS011;4148;47.974;7.824;2022-12-07T09:20:15;7.97;;;4.87;;
8213;SDS011;4148;47.974;7.824;2022-12-07T09:22:48;7.37;;;4.87;;
8213;SDS011;4148;47.974;7.824;2022-12-07T09:25:16;5.50;;;3.77;;
8213;SDS011;4148;47.974;7.824;2022-12-07T09:27:44;7.40;;;4.30;;
8213;SDS011;4148;47.974;7.824;2022-12-07T09:30:12;8.90;;;4.60;;
8213;SDS011;4148;47.974;7.824;2022-12-07T09:32:41;8.93;;;5.80;;
8213;SDS011;4148;47.974;7.824;2022-12-07T09:35:09;7.80;;;6.07;;
8213;SDS011;4148;47.974;7.824;2022-12-07T09:37:37;8.60;;;5.70;;
8213;SDS011;4148;47.974;7.824;2022-12-07T09:40:05;8.60;;;5.60;;
8213;SDS011;4148;47.974;7.824;2022-12-07T09:42:35;6.90;;;4.40;;
8213;SDS011;4148;47.974;7.824;2022-12-07T09:45:06;5.70;;;4.37;;
8213;SDS011;4148;47.974;7.824;2022-12-07T09:47:39;5.00;;;3.90;;
8213;SDS011;4148;47.974;7.824;2022-12-07T09:50:12;5.30;;;3.53;;
8213;SDS011;4148;47.974;7.824;2022-12-07T09:52:42;6.37;;;3.97;;
8213;SDS011;4148;47.974;7.824;2022-12-07T09:55:12;5.70;;;3.90;;
8213;SDS011;4148;47.974;7.824;2022-12-07T09:57:42;6.07;;;4.10;;
8213;SDS011;4148;47.974;7.824;2022-12-07T10:00:12;4.93;;;3.50;;
8213;SDS011;4148;47.974;7.824;2022-12-07T10:02:44;6.57;;;4.20;;
8213;SDS011;4148;47.974;7.824;2022-12-07T10:05:16;4.90;;;3.70;;
8213;SDS011;4148;47.974;7.824;2022-12-07T10:07:50;7.20;;;4.47;;
8213;SDS011;4148;47.974;7.824;2022-12-07T10:10:19;5.50;;;4.13;;
8213;SDS011;4148;47.974;7.824;2022-12-07T10:12:56;5.53;;;3.90;;
8213;SDS011;4148;47.974;7.824;2022-12-07T10:18:25;4.00;;;3.57;;
8213;SDS011;4148;47.974;7.824;2022-12-07T10:21:03;5.97;;;4.00;;
8213;SDS011;4148;47.974;7.824;2022-12-07T10:23:41;4.27;;;3.20;;
8213;SDS011;4148;47.974;7.824;2022-12-07T10:26:19;5.63;;;2.80;;
8213;SDS011;4148;47.974;7.824;2022-12-07T10:28:58;3.80;;;3.20;;
8213;SDS011;4148;47.974;7.824;2022-12-07T10:31:28;4.50;;;3.07;;
8213;SDS011;4148;47.974;7.824;2022-12-07T10:33:57;4.53;;;3.10;;
8213;SDS011;4148;47.974;7.824;2022-12-07T10:36:33;5.90;;;3.60;;
8213;SDS011;4148;47.974;7.824;2022-12-07T10:39:03;5.80;;;3.33;;
8213;SDS011;4148;47.974;7.824;2022-12-07T10:41:52;4.83;;;3.27;;
8213;SDS011;4148;47.974;7.824;2022-12-07T10:44:22;3.50;;;2.90;;
8213;SDS011;4148;47.974;7.824;2022-12-07T10:47:01;3.97;;;3.30;;
8213;SDS011;4148;47.974;7.824;2022-12-07T10:50:02;2.87;;;2.53;;
8213;SDS011;4148;47.974;7.824;2022-12-07T10:52:45;4.03;;;2.80;;
8213;SDS011;4148;47.974;7.824;2022-12-07T10:55:36;8.10;;;2.93;;
8213;SDS011;4148;47.974;7.824;2022-12-07T10:58:21;3.57;;;2.87;;
8213;SDS011;4148;47.974;7.824;2022-12-07T11:01:00;5.27;;;2.90;;
8213;SDS011;4148;47.974;7.824;2022-12-07T11:03:39;4.03;;;3.03;;
8213;SDS011;4148;47.974;7.824;2022-12-07T11:06:35;4.17;;;3.40;;
8213;SDS011;4148;47.974;7.824;2022-12-07T11:09:20;3.83;;;3.13;;
8213;SDS011;4148;47.974;7.824;2022-12-07T11:12:25;4.60;;;3.60;;
8213;SDS011;4148;47.974;7.824;2022-12-07T11:15:04;3.80;;;3.40;;
8213;SDS011;4148;47.974;7.824;2022-12-07T11:17:43;5.40;;;3.67;;
8213;SDS011;4148;47.974;7.824;2022-12-07T11:20:24;4.40;;;3.63;;
8213;SDS011;4148;47.974;7.824;2022-12-07T11:23:03;4.40;;;3.80;;
8213;SDS011;4148;47.974;7.824;2022-12-07T11:25:43;3.50;;;3.20;;
8213;SDS011;4148;47.974;7.824;2022-12-07T11:28:22;7.60;;;4.20;;
8213;SDS011;4148;47.974;7.824;2022-12-07T11:31:03;4.97;;;3.57;;
8213;SDS011;4148;47.974;7.824;2022-12-07T11:33:41;5.77;;;4.13;;
8213;SDS011;4148;47.974;7.824;2022-12-07T11:36:17;7.93;;;5.00;;
8213;SDS011;4148;47.974;7.824;2022-12-07T11:39:00;5.30;;;4.40;;
8213;SDS011;4148;47.974;7.824;2022-12-07T11:41:32;6.23;;;4.43;;
8213;SDS011;4148;47.974;7.824;2022-12-07T11:44:05;5.37;;;3.77;;
8213;SDS011;4148;47.974;7.824;2022-12-07T11:46:39;6.00;;;3.70;;
8213;SDS011;4148;47.974;7.824;2022-12-07T11:49:15;4.87;;;3.97;;
8213;SDS011;4148;47.974;7.824;2022-12-07T11:51:51;5.43;;;4.07;;
8213;SDS011;4148;47.974;7.824;2022-12-07T11:54:25;5.70;;;4.33;;
8213;SDS011;4148;47.974;7.824;2022-12-07T11:56:59;6.93;;;4.30;;
8213;SDS011;4148;47.974;7.824;2022-12-07T11:59:31;3.10;;;2.70;;
8213;SDS011;4148;47.974;7.824;2022-12-07T12:02:10;2.80;;;2.30;;
8213;SDS011;4148;47.974;7.824;2022-12-07T12:04:46;3.53;;;3.07;;
8213;SDS011;4148;47.974;7.824;2022-12-07T12:07:19;4.23;;;2.90;;
8213;SDS011;4148;47.974;7.824;2022-12-07T12:10:15;4.00;;;3.57;;
8213;SDS011;4148;47.974;7.824;2022-12-07T12:12:53;5.30;;;4.17;;
8213;SDS011;4148;47.974;7.824;2022-12-07T12:16:01;5.40;;;3.90;;
8213;SDS011;4148;47.974;7.824;2022-12-07T12:21:45;7.50;;;4.80;;
8213;SDS011;4148;47.974;7.824;2022-12-07T12:24:23;5.97;;;4.40;;
8213;SDS011;4148;47.974;7.824;2022-12-07T12:26:55;6.67;;;4.40;;
8213;SDS011;4148;47.974;7.824;2022-12-07T12:29:31;6.00;;;5.07;;
8213;SDS011;4148;47.974;7.824;2022-12-07T12:32:13;9.23;;;4.90;;
8213;SDS011;4148;47.974;7.824;2022-12-07T12:35:01;7.20;;;5.33;;
8213;SDS011;4148;47.974;7.824;2022-12-07T12:37:46;6.33;;;4.90;;
8213;SDS011;4148;47.974;7.824;2022-12-07T12:40:37;11.73;;;4.63;;
8213;SDS011;4148;47.974;7.824;2022-12-07T12:49:34;7.87;;;4.93;;
8213;SDS011;4148;47.974;7.824;2022-12-07T12:55:17;5.43;;;4.50;;
8213;SDS011;4148;47.974;7.824;2022-12-07T13:04:14;7.10;;;4.17;;
8213;SDS011;4148;47.974;7.824;2022-12-07T13:07:04;5.43;;;3.80;;
8213;SDS011;4148;47.974;7.824;2022-12-07T13:09:36;6.07;;;4.40;;
8213;SDS011;4148;47.974;7.824;2022-12-07T13:12:11;7.57;;;4.60;;
8213;SDS011;4148;47.974;7.824;2022-12-07T13:14:42;7.83;;;4.57;;
8213;SDS011;4148;47.974;7.824;2022-12-07T13:20:44;5.13;;;3.50;;
8213;SDS011;4148;47.974;7.824;2022-12-07T13:23:19;7.40;;;3.77;;
8213;SDS011;4148;47.974;7.824;2022-12-07T13:25:54;4.47;;;3.40;;
8213;SDS011;4148;47.974;7.824;2022-12-07T13:28:32;6.13;;;3.73;;
8213;SDS011;4148;47.974;7.824;2022-12-07T13:31:12;5.53;;;3.90;;
8213;SDS011;4148;47.974;7.824;2022-12-07T13:33:51;5.10;;;3.73;;
8213;SDS011;4148;47.974;7.824;2022-12-07T13:36:20;9.27;;;4.20;;
8213;SDS011;4148;47.974;7.824;2022-12-07T13:38:53;6.90;;;4.00;;
8213;SDS011;4148;47.974;7.824;2022-12-07T13:41:23;5.70;;;3.70;;
8213;SDS011;4148;47.974;7.824;2022-12-07T13:43:55;7.10;;;3.80;;
8213;SDS011;4148;47.974;7.824;2022-12-07T13:46:40;7.17;;;4.33;;
8213;SDS011;4148;47.974;7.824;2022-12-07T13:49:20;7.17;;;4.33;;
8213;SDS011;4148;47.974;7.824;2022-12-07T13:51:50;7.47;;;4.57;;
8213;SDS011;4148;47.974;7.824;2022-12-07T13:54:20;5.40;;;4.13;;
8213;SDS011;4148;47.974;7.824;2022-12-07T13:56:49;6.53;;;4.33;;
8213;SDS011;4148;47.974;7.824;2022-12-07T13:59:19;6.73;;;4.30;;
8213;SDS011;4148;47.974;7.824;2022-12-07T14:01:50;7.20;;;4.73;;
8213;SDS011;4148;47.974;7.824;2022-12-07T14:04:30;6.80;;;4.30;;
8213;SDS011;4148;47.974;7.824;2022-12-07T14:07:01;5.13;;;4.03;;
8213;SDS011;4148;47.974;7.824;2022-12-07T14:09:52;5.63;;;4.23;;
8213;SDS011;4148;47.974;7.824;2022-12-07T14:12:21;6.30;;;4.60;;
8213;SDS011;4148;47.974;7.824;2022-12-07T14:14:49;5.73;;;3.90;;
8213;SDS011;4148;47.974;7.824;2022-12-07T14:17:19;6.57;;;4.10;;
8213;SDS011;4148;47.974;7.824;2022-12-07T14:19:49;5.37;;;4.17;;
8213;SDS011;4148;47.974;7.824;2022-12-07T14:22:25;5.57;;;3.73;;
8213;SDS011;4148;47.974;7.824;2022-12-07T14:25:00;6.57;;;4.13;;
8213;SDS011;4148;47.974;7.824;2022-12-07T14:27:47;6.00;;;4.53;;
8213;SDS011;4148;47.974;7.824;2022-12-07T14:30:17;5.37;;;4.17;;
8213;SDS011;4148;47.974;7.824;2022-12-07T14:32:46;5.80;;;4.07;;
8213;SDS011;4148;47.974;7.824;2022-12-07T14:35:18;5.90;;;4.43;;
8213;SDS011;4148;47.974;7.824;2022-12-07T14:37:47;4.63;;;3.70;;
8213;SDS011;4148;47.974;7.824;2022-12-07T14:40:18;5.60;;;3.80;;
8213;SDS011;4148;47.974;7.824;2022-12-07T14:42:49;5.27;;;4.20;;
8213;SDS011;4148;47.974;7.824;2022-12-07T14:45:21;4.57;;;3.10;;
8213;SDS011;4148;47.974;7.824;2022-12-07T14:47:49;4.73;;;3.43;;
8213;SDS011;4148;47.974;7.824;2022-12-07T14:50:38;4.80;;;3.90;;
8213;SDS011;4148;47.974;7.824;2022-12-07T14:53:31;4.60;;;3.40;;
8213;SDS011;4148;47.974;7.824;2022-12-07T14:56:03;5.43;;;3.53;;
8213;SDS011;4148;47.974;7.824;2022-12-07T14:58:32;5.50;;;3.93;;
8213;SDS011;4148;47.974;7.824;2022-12-07T15:01:00;5.30;;;4.10;;
8213;SDS011;4148;47.974;7.824;2022-12-07T15:03:28;4.83;;;3.70;;
8213;SDS011;4148;47.974;7.824;2022-12-07T15:05:57;7.00;;;4.53;;
8213;SDS011;4148;47.974;7.824;2022-12-07T15:08:25;7.13;;;5.23;;
8213;SDS011;4148;47.974;7.824;2022-12-07T15:10:53;6.97;;;4.50;;
8213;SDS011;4148;47.974;7.824;2022-12-07T15:13:23;6.83;;;5.20;;
8213;SDS011;4148;47.974;7.824;2022-12-07T15:16:09;7.70;;;4.77;;
8213;SDS011;4148;47.974;7.824;2022-12-07T15:18:40;6.50;;;4.50;;
8213;SDS011;4148;47.974;7.824;2022-12-07T15:21:28;9.13;;;5.73;;
8213;SDS011;4148;47.974;7.824;2022-12-07T15:23:56;8.10;;;4.90;;
8213;SDS011;4148;47.974;7.824;2022-12-07T15:26:24;7.20;;;5.37;;
8213;SDS011;4148;47.974;7.824;2022-12-07T15:28:53;8.10;;;4.90;;
8213;SDS011;4148;47.974;7.824;2022-12-07T15:31:21;9.00;;;5.40;;
8213;SDS011;4148;47.974;7.824;2022-12-07T15:34:09;8.47;;;5.83;;
8213;SDS011;4148;47.974;7.824;2022-12-07T15:36:37;7.90;;;5.57;;
8213;SDS011;4148;47.974;7.824;2022-12-07T15:39:05;9.40;;;5.70;;
8213;SDS011;4148;47.974;7.824;2022-12-07T15:41:40;9.20;;;5.43;;
8213;SDS011;4148;47.974;7.824;2022-12-07T15:44:11;11.57;;;5.90;;
8213;SDS011;4148;47.974;7.824;2022-12-07T15:46:57;9.50;;;6.00;;
8213;SDS011;4148;47.974;7.824;2022-12-07T15:49:25;12.13;;;7.47;;
8213;SDS011;4148;47.974;7.824;2022-12-07T15:51:54;11.00;;;6.47;;
8213;SDS011;4148;47.974;7.824;2022-12-07T15:54:23;10.13;;;6.77;;
8213;SDS011;4148;47.974;7.824;2022-12-07T15:56:52;8.77;;;5.90;;
8213;SDS011;4148;47.974;7.824;2022-12-07T15:59:21;9.37;;;5.87;;
8213;SDS011;4148;47.974;7.824;2022-12-07T16:01:50;8.77;;;6.00;;
8213;SDS011;4148;47.974;7.824;2022-12-07T16:04:18;7.83;;;5.47;;
8213;SDS011;4148;47.974;7.824;2022-12-07T16:06:46;10.53;;;6.23;;
8213;SDS011;4148;47.974;7.824;2022-12-07T16:09:14;9.00;;;6.27;;